sensor_id;sensor_type;location;lat;lon;timestamp;P1;durP1;ratioP1;P2;durP2;ratioP2
8636;SDS011;4356;49.068;8.658;2024-01-30T00:02:12;8.63;;;6.83;;
8636;SDS011;4356;49.068;8.658;2024-01-30T00:04:38;6.97;;;6.37;;
8636;SDS011;4356;49.068;8.658;2024-01-30T00:07:03;7.47;;;5.87;;
8636;SDS011;4356;49.068;8.658;2024-01-30T00:09:29;6.80;;;6.10;;
8636;SDS011;4356;49.068;8.658;2024-01-30T00:11:54;6.07;;;5.50;;
8636;SDS011;4356;49.068;8.658;2024-01-30T00:14:19;6.20;;;5.60;;
8636;SDS011;4356;49.068;8.658;2024-01-30T00:16:45;5.50;;;5.00;;
8636;SDS011;4356;49.068;8.658;2024-01-30T00:19:10;6.07;;;5.17;;
8636;SDS011;4356;49.068;8.658;2024-01-30T00:21:35;6.00;;;5.50;;
8636;SDS011;4356;49.068;8.658;2024-01-30T00:24:01;5.67;;;5.20;;
8636;SDS011;4356;49.068;8.658;2024-01-30T00:26:26;5.13;;;4.53;;
8636;SDS011;4356;49.068;8.658;2024-01-30T00:28:52;5.90;;;5.40;;
8636;SDS011;4356;49.068;8.658;2024-01-30T00:31:17;5.50;;;5.00;;
8636;SDS011;4356;49.068;8.658;2024-01-30T00:33:43;5.00;;;4.60;;
8636;SDS011;4356;49.068;8.658;2024-01-30T00:36:09;5.40;;;5.00;;
8636;SDS011;4356;49.068;8.658;2024-01-30T00:38:35;5.90;;;4.87;;
8636;SDS011;4356;49.068;8.658;2024-01-30T00:41:01;5.57;;;5.17;;
8636;SDS011;4356;49.068;8.658;2024-01-30T00:43:29;5.63;;;5.23;;
8636;SDS011;4356;49.068;8.658;2024-01-30T00:45:56;5.80;;;5.20;;
8636;SDS011;4356;49.068;8.658;2024-01-30T00:48:21;5.60;;;5.10;;
8636;SDS011;4356;49.068;8.658;2024-01-30T00:50:47;5.43;;;4.93;;
8636;SDS011;4356;49.068;8.658;2024-01-30T00:53:12;5.70;;;5.20;;
8636;SDS011;4356;49.068;8.658;2024-01-30T00:55:38;5.53;;;5.03;;
8636;SDS011;4356;49.068;8.658;2024-01-30T00:58:03;5.20;;;4.70;;
8636;SDS011;4356;49.068;8.658;2024-01-30T01:00:29;5.30;;;4.80;;
8636;SDS011;4356;49.068;8.658;2024-01-30T01:02:56;5.70;;;5.20;;
8636;SDS011;4356;49.068;8.658;2024-01-30T01:05:21;5.80;;;5.20;;
8636;SDS011;4356;49.068;8.658;2024-01-30T01:07:46;7.83;;;5.13;;
8636;SDS011;4356;49.068;8.658;2024-01-30T01:10:16;5.70;;;5.20;;
8636;SDS011;4356;49.068;8.658;2024-01-30T01:12:42;6.37;;;5.47;;
8636;SDS011;4356;49.068;8.658;2024-01-30T01:15:07;6.50;;;5.80;;
8636;SDS011;4356;49.068;8.658;2024-01-30T01:17:39;7.40;;;5.83;;
8636;SDS011;4356;49.068;8.658;2024-01-30T01:20:05;5.47;;;4.97;;
8636;SDS011;4356;49.068;8.658;2024-01-30T01:22:32;5.77;;;5.10;;
8636;SDS011;4356;49.068;8.658;2024-01-30T01:24:58;4.80;;;4.40;;
8636;SDS011;4356;49.068;8.658;2024-01-30T01:27:24;5.03;;;4.63;;
8636;SDS011;4356;49.068;8.658;2024-01-30T01:29:50;6.53;;;5.10;;
8636;SDS011;4356;49.068;8.658;2024-01-30T01:32:15;4.80;;;4.50;;
8636;SDS011;4356;49.068;8.658;2024-01-30T01:34:41;5.27;;;4.77;;
8636;SDS011;4356;49.068;8.658;2024-01-30T01:37:06;5.10;;;4.60;;
8636;SDS011;4356;49.068;8.658;2024-01-30T01:39:32;4.30;;;3.90;;
8636;SDS011;4356;49.068;8.658;2024-01-30T01:41:57;6.00;;;4.60;;
8636;SDS011;4356;49.068;8.658;2024-01-30T01:44:23;4.90;;;4.37;;
8636;SDS011;4356;49.068;8.658;2024-01-30T01:46:48;4.97;;;4.57;;
8636;SDS011;4356;49.068;8.658;2024-01-30T01:49:13;4.73;;;4.33;;
8636;SDS011;4356;49.068;8.658;2024-01-30T01:51:39;4.83;;;4.40;;
8636;SDS011;4356;49.068;8.658;2024-01-30T01:54:07;5.43;;;4.87;;
8636;SDS011;4356;49.068;8.658;2024-01-30T01:56:33;4.60;;;4.30;;
8636;SDS011;4356;49.068;8.658;2024-01-30T01:59:04;5.27;;;4.83;;
8636;SDS011;4356;49.068;8.658;2024-01-30T02:01:32;5.20;;;4.50;;
8636;SDS011;4356;49.068;8.658;2024-01-30T02:04:01;5.43;;;4.87;;
8636;SDS011;4356;49.068;8.658;2024-01-30T02:06:27;5.07;;;4.57;;
8636;SDS011;4356;49.068;8.658;2024-01-30T02:08:53;5.03;;;4.53;;
8636;SDS011;4356;49.068;8.658;2024-01-30T02:11:22;4.67;;;4.33;;
8636;SDS011;4356;49.068;8.658;2024-01-30T02:13:49;5.07;;;4.67;;
8636;SDS011;4356;49.068;8.658;2024-01-30T02:16:15;5.17;;;4.70;;
8636;SDS011;4356;49.068;8.658;2024-01-30T02:18:42;4.90;;;4.50;;
8636;SDS011;4356;49.068;8.658;2024-01-30T02:21:10;4.60;;;4.20;;
8636;SDS011;4356;49.068;8.658;2024-01-30T02:23:36;4.73;;;4.43;;
8636;SDS011;4356;49.068;8.658;2024-01-30T02:26:02;5.30;;;4.40;;
8636;SDS011;4356;49.068;8.658;2024-01-30T02:28:28;4.70;;;4.30;;
8636;SDS011;4356;49.068;8.658;2024-01-30T02:30:53;4.80;;;4.17;;
8636;SDS011;4356;49.068;8.658;2024-01-30T02:33:19;5.83;;;3.90;;
8636;SDS011;4356;49.068;8.658;2024-01-30T02:35:44;5.67;;;4.13;;
8636;SDS011;4356;49.068;8.658;2024-01-30T02:38:10;4.30;;;3.93;;
8636;SDS011;4356;49.068;8.658;2024-01-30T02:40:35;3.60;;;3.40;;
8636;SDS011;4356;49.068;8.658;2024-01-30T02:43:01;4.27;;;4.00;;
8636;SDS011;4356;49.068;8.658;2024-01-30T02:45:27;4.53;;;4.13;;
8636;SDS011;4356;49.068;8.658;2024-01-30T02:47:52;3.70;;;3.40;;
8636;SDS011;4356;49.068;8.658;2024-01-30T02:50:18;3.70;;;3.50;;
8636;SDS011;4356;49.068;8.658;2024-01-30T02:52:43;4.47;;;4.10;;
8636;SDS011;4356;49.068;8.658;2024-01-30T02:55:09;3.60;;;3.40;;
8636;SDS011;4356;49.068;8.658;2024-01-30T02:57:34;4.40;;;4.00;;
8636;SDS011;4356;49.068;8.658;2024-01-30T03:00:00;3.70;;;3.40;;
8636;SDS011;4356;49.068;8.658;2024-01-30T03:02:26;4.57;;;4.17;;
8636;SDS011;4356;49.068;8.658;2024-01-30T03:04:51;4.03;;;3.73;;
8636;SDS011;4356;49.068;8.658;2024-01-30T03:07:16;4.30;;;3.90;;
8636;SDS011;4356;49.068;8.658;2024-01-30T03:09:42;3.70;;;3.50;;
8636;SDS011;4356;49.068;8.658;2024-01-30T03:12:09;4.40;;;4.00;;
8636;SDS011;4356;49.068;8.658;2024-01-30T03:14:34;3.90;;;3.70;;
8636;SDS011;4356;49.068;8.658;2024-01-30T03:17:00;4.63;;;4.10;;
8636;SDS011;4356;49.068;8.658;2024-01-30T03:19:25;4.60;;;4.30;;
8636;SDS011;4356;49.068;8.658;2024-01-30T03:21:50;5.33;;;4.23;;
8636;SDS011;4356;49.068;8.658;2024-01-30T03:24:16;4.83;;;4.43;;
8636;SDS011;4356;49.068;8.658;2024-01-30T03:26:42;4.57;;;4.27;;
8636;SDS011;4356;49.068;8.658;2024-01-30T03:29:07;4.23;;;3.90;;
8636;SDS011;4356;49.068;8.658;2024-01-30T03:31:33;4.27;;;3.97;;
8636;SDS011;4356;49.068;8.658;2024-01-30T03:33:58;4.60;;;4.20;;
8636;SDS011;4356;49.068;8.658;2024-01-30T03:36:23;4.30;;;4.00;;
8636;SDS011;4356;49.068;8.658;2024-01-30T03:38:49;4.37;;;4.07;;
8636;SDS011;4356;49.068;8.658;2024-01-30T03:41:14;4.50;;;4.10;;
8636;SDS011;4356;49.068;8.658;2024-01-30T03:43:40;3.83;;;3.63;;
8636;SDS011;4356;49.068;8.658;2024-01-30T03:46:05;4.30;;;4.00;;
8636;SDS011;4356;49.068;8.658;2024-01-30T03:48:31;3.80;;;3.57;;
8636;SDS011;4356;49.068;8.658;2024-01-30T03:50:56;4.20;;;3.83;;
8636;SDS011;4356;49.068;8.658;2024-01-30T03:53:22;4.63;;;4.07;;
8636;SDS011;4356;49.068;8.658;2024-01-30T03:55:47;4.37;;;4.03;;
8636;SDS011;4356;49.068;8.658;2024-01-30T03:58:13;4.73;;;4.43;;
8636;SDS011;4356;49.068;8.658;2024-01-30T04:00:38;4.50;;;4.10;;
8636;SDS011;4356;49.068;8.658;2024-01-30T04:03:04;4.17;;;3.80;;
8636;SDS011;4356;49.068;8.658;2024-01-30T04:05:30;4.70;;;4.30;;
8636;SDS011;4356;49.068;8.658;2024-01-30T04:07:55;3.90;;;3.60;;
8636;SDS011;4356;49.068;8.658;2024-01-30T04:10:20;4.80;;;4.33;;
8636;SDS011;4356;49.068;8.658;2024-01-30T04:12:46;4.30;;;4.00;;
8636;SDS011;4356;49.068;8.658;2024-01-30T04:15:11;4.37;;;4.07;;
8636;SDS011;4356;49.068;8.658;2024-01-30T04:17:38;4.10;;;3.80;;
8636;SDS011;4356;49.068;8.658;2024-01-30T04:20:04;4.37;;;4.07;;
8636;SDS011;4356;49.068;8.658;2024-01-30T04:22:30;5.20;;;4.77;;
8636;SDS011;4356;49.068;8.658;2024-01-30T04:24:56;4.83;;;4.53;;
8636;SDS011;4356;49.068;8.658;2024-01-30T04:27:21;4.60;;;4.30;;
8636;SDS011;4356;49.068;8.658;2024-01-30T04:29:46;4.97;;;4.53;;
8636;SDS011;4356;49.068;8.658;2024-01-30T04:32:12;4.40;;;4.07;;
8636;SDS011;4356;49.068;8.658;2024-01-30T04:34:37;4.57;;;4.17;;
8636;SDS011;4356;49.068;8.658;2024-01-30T04:37:03;4.90;;;4.40;;
8636;SDS011;4356;49.068;8.658;2024-01-30T04:39:28;4.53;;;4.23;;
8636;SDS011;4356;49.068;8.658;2024-01-30T04:41:53;4.57;;;4.23;;
8636;SDS011;4356;49.068;8.658;2024-01-30T04:44:19;4.70;;;4.30;;
8636;SDS011;4356;49.068;8.658;2024-01-30T04:46:44;4.73;;;4.10;;
8636;SDS011;4356;49.068;8.658;2024-01-30T04:49:10;3.73;;;3.53;;
8636;SDS011;4356;49.068;8.658;2024-01-30T04:51:35;4.30;;;3.90;;
8636;SDS011;4356;49.068;8.658;2024-01-30T04:54:01;4.43;;;4.13;;
8636;SDS011;4356;49.068;8.658;2024-01-30T04:56:26;4.23;;;3.93;;
8636;SDS011;4356;49.068;8.658;2024-01-30T04:58:52;5.60;;;5.13;;
8636;SDS011;4356;49.068;8.658;2024-01-30T05:01:17;4.80;;;4.43;;
8636;SDS011;4356;49.068;8.658;2024-01-30T05:03:42;5.27;;;4.80;;
8636;SDS011;4356;49.068;8.658;2024-01-30T05:06:08;5.33;;;4.90;;
8636;SDS011;4356;49.068;8.658;2024-01-30T05:08:34;4.77;;;4.40;;
8636;SDS011;4356;49.068;8.658;2024-01-30T05:11:01;5.13;;;4.73;;
8636;SDS011;4356;49.068;8.658;2024-01-30T05:13:29;6.13;;;4.93;;
8636;SDS011;4356;49.068;8.658;2024-01-30T05:15:55;5.47;;;4.10;;
8636;SDS011;4356;49.068;8.658;2024-01-30T05:18:21;3.90;;;3.60;;
8636;SDS011;4356;49.068;8.658;2024-01-30T05:20:46;4.43;;;4.13;;
8636;SDS011;4356;49.068;8.658;2024-01-30T05:23:11;4.30;;;4.00;;
8636;SDS011;4356;49.068;8.658;2024-01-30T05:25:37;4.43;;;4.03;;
8636;SDS011;4356;49.068;8.658;2024-01-30T05:28:02;4.77;;;4.37;;
8636;SDS011;4356;49.068;8.658;2024-01-30T05:30:28;4.37;;;4.07;;
8636;SDS011;4356;49.068;8.658;2024-01-30T05:32:53;4.23;;;3.83;;
8636;SDS011;4356;49.068;8.658;2024-01-30T05:35:19;4.30;;;4.00;;
8636;SDS011;4356;49.068;8.658;2024-01-30T05:37:47;4.23;;;3.93;;
8636;SDS011;4356;49.068;8.658;2024-01-30T05:40:16;4.27;;;4.00;;
8636;SDS011;4356;49.068;8.658;2024-01-30T05:42:41;4.43;;;4.13;;
8636;SDS011;4356;49.068;8.658;2024-01-30T05:45:07;4.33;;;4.03;;
8636;SDS011;4356;49.068;8.658;2024-01-30T05:47:33;4.77;;;4.37;;
8636;SDS011;4356;49.068;8.658;2024-01-30T05:49:59;6.07;;;4.53;;
8636;SDS011;4356;49.068;8.658;2024-01-30T05:52:24;5.47;;;4.80;;
8636;SDS011;4356;49.068;8.658;2024-01-30T05:54:50;5.30;;;4.80;;
8636;SDS011;4356;49.068;8.658;2024-01-30T05:57:15;4.67;;;4.33;;
8636;SDS011;4356;49.068;8.658;2024-01-30T05:59:41;4.80;;;4.27;;
8636;SDS011;4356;49.068;8.658;2024-01-30T06:02:06;7.93;;;4.67;;
8636;SDS011;4356;49.068;8.658;2024-01-30T06:04:32;5.10;;;4.70;;
8636;SDS011;4356;49.068;8.658;2024-01-30T06:06:57;4.97;;;4.57;;
8636;SDS011;4356;49.068;8.658;2024-01-30T06:09:22;7.20;;;5.20;;
8636;SDS011;4356;49.068;8.658;2024-01-30T06:11:48;5.60;;;5.20;;
8636;SDS011;4356;49.068;8.658;2024-01-30T06:14:13;6.03;;;5.53;;
8636;SDS011;4356;49.068;8.658;2024-01-30T06:16:38;6.63;;;6.00;;
8636;SDS011;4356;49.068;8.658;2024-01-30T06:19:04;6.07;;;5.50;;
8636;SDS011;4356;49.068;8.658;2024-01-30T06:21:30;6.30;;;5.80;;
8636;SDS011;4356;49.068;8.658;2024-01-30T06:23:57;5.80;;;5.33;;
8636;SDS011;4356;49.068;8.658;2024-01-30T06:26:22;6.63;;;5.97;;
8636;SDS011;4356;49.068;8.658;2024-01-30T06:28:47;7.27;;;6.33;;
8636;SDS011;4356;49.068;8.658;2024-01-30T06:31:13;8.80;;;6.23;;
8636;SDS011;4356;49.068;8.658;2024-01-30T06:33:38;7.30;;;6.60;;
8636;SDS011;4356;49.068;8.658;2024-01-30T06:36:04;6.47;;;5.90;;
8636;SDS011;4356;49.068;8.658;2024-01-30T06:38:29;7.77;;;6.67;;
8636;SDS011;4356;49.068;8.658;2024-01-30T06:40:54;8.50;;;6.00;;
8636;SDS011;4356;49.068;8.658;2024-01-30T06:43:20;8.93;;;6.17;;
8636;SDS011;4356;49.068;8.658;2024-01-30T06:45:45;6.90;;;6.17;;
8636;SDS011;4356;49.068;8.658;2024-01-30T06:48:11;9.20;;;5.90;;
8636;SDS011;4356;49.068;8.658;2024-01-30T06:50:36;9.90;;;6.70;;
8636;SDS011;4356;49.068;8.658;2024-01-30T06:53:02;7.07;;;6.37;;
8636;SDS011;4356;49.068;8.658;2024-01-30T06:55:27;7.73;;;6.93;;
8636;SDS011;4356;49.068;8.658;2024-01-30T06:57:52;7.87;;;6.27;;
8636;SDS011;4356;49.068;8.658;2024-01-30T07:00:18;7.77;;;7.03;;
8636;SDS011;4356;49.068;8.658;2024-01-30T07:02:44;8.43;;;6.47;;
8636;SDS011;4356;49.068;8.658;2024-01-30T07:05:10;12.63;;;7.80;;
8636;SDS011;4356;49.068;8.658;2024-01-30T07:07:35;13.90;;;7.33;;
8636;SDS011;4356;49.068;8.658;2024-01-30T07:10:01;17.70;;;8.40;;
8636;SDS011;4356;49.068;8.658;2024-01-30T07:12:26;21.50;;;8.23;;
8636;SDS011;4356;49.068;8.658;2024-01-30T07:14:51;15.70;;;8.57;;
8636;SDS011;4356;49.068;8.658;2024-01-30T07:17:17;25.53;;;10.17;;
8636;SDS011;4356;49.068;8.658;2024-01-30T07:19:42;15.53;;;8.10;;
8636;SDS011;4356;49.068;8.658;2024-01-30T07:22:08;16.07;;;8.70;;
8636;SDS011;4356;49.068;8.658;2024-01-30T07:24:33;13.67;;;8.43;;
8636;SDS011;4356;49.068;8.658;2024-01-30T07:26:59;21.60;;;10.20;;
8636;SDS011;4356;49.068;8.658;2024-01-30T07:29:24;24.17;;;11.93;;
8636;SDS011;4356;49.068;8.658;2024-01-30T07:31:49;12.57;;;7.90;;
8636;SDS011;4356;49.068;8.658;2024-01-30T07:34:15;13.23;;;8.30;;
8636;SDS011;4356;49.068;8.658;2024-01-30T07:36:40;16.33;;;9.87;;
8636;SDS011;4356;49.068;8.658;2024-01-30T07:39:06;16.73;;;9.83;;
8636;SDS011;4356;49.068;8.658;2024-01-30T07:41:32;12.37;;;8.27;;
8636;SDS011;4356;49.068;8.658;2024-01-30T07:43:57;13.57;;;8.10;;
8636;SDS011;4356;49.068;8.658;2024-01-30T07:46:23;13.90;;;9.13;;
8636;SDS011;4356;49.068;8.658;2024-01-30T07:48:48;11.30;;;7.90;;
8636;SDS011;4356;49.068;8.658;2024-01-30T07:51:13;14.97;;;8.77;;
8636;SDS011;4356;49.068;8.658;2024-01-30T07:53:39;13.47;;;8.40;;
8636;SDS011;4356;49.068;8.658;2024-01-30T07:56:05;16.57;;;9.00;;
8636;SDS011;4356;49.068;8.658;2024-01-30T07:58:30;24.00;;;9.87;;
8636;SDS011;4356;49.068;8.658;2024-01-30T08:00:56;22.27;;;9.90;;
8636;SDS011;4356;49.068;8.658;2024-01-30T08:03:23;24.70;;;10.53;;
8636;SDS011;4356;49.068;8.658;2024-01-30T08:05:49;21.67;;;11.27;;
8636;SDS011;4356;49.068;8.658;2024-01-30T08:08:14;16.57;;;10.47;;
8636;SDS011;4356;49.068;8.658;2024-01-30T08:10:40;21.70;;;10.73;;
8636;SDS011;4356;49.068;8.658;2024-01-30T08:13:05;16.50;;;10.80;;
8636;SDS011;4356;49.068;8.658;2024-01-30T08:15:31;17.60;;;10.43;;
8636;SDS011;4356;49.068;8.658;2024-01-30T08:17:56;16.20;;;10.67;;
8636;SDS011;4356;49.068;8.658;2024-01-30T08:20:26;18.60;;;9.83;;
8636;SDS011;4356;49.068;8.658;2024-01-30T08:22:51;10.17;;;7.67;;
8636;SDS011;4356;49.068;8.658;2024-01-30T08:25:17;10.30;;;7.87;;
8636;SDS011;4356;49.068;8.658;2024-01-30T08:27:42;12.70;;;8.23;;
8636;SDS011;4356;49.068;8.658;2024-01-30T08:30:08;10.20;;;8.30;;
8636;SDS011;4356;49.068;8.658;2024-01-30T08:32:34;11.20;;;8.10;;
8636;SDS011;4356;49.068;8.658;2024-01-30T08:34:59;12.10;;;8.93;;
8636;SDS011;4356;49.068;8.658;2024-01-30T08:37:28;10.33;;;8.50;;
8636;SDS011;4356;49.068;8.658;2024-01-30T08:39:54;10.23;;;8.63;;
8636;SDS011;4356;49.068;8.658;2024-01-30T08:42:19;10.37;;;8.93;;
8636;SDS011;4356;49.068;8.658;2024-01-30T08:44:47;9.90;;;8.70;;
8636;SDS011;4356;49.068;8.658;2024-01-30T08:47:14;9.73;;;8.00;;
8636;SDS011;4356;49.068;8.658;2024-01-30T08:49:41;9.00;;;8.07;;
8636;SDS011;4356;49.068;8.658;2024-01-30T08:52:08;12.83;;;7.93;;
8636;SDS011;4356;49.068;8.658;2024-01-30T08:54:33;9.47;;;8.43;;
8636;SDS011;4356;49.068;8.658;2024-01-30T08:57:00;8.93;;;7.93;;
8636;SDS011;4356;49.068;8.658;2024-01-30T08:59:25;11.37;;;8.00;;
8636;SDS011;4356;49.068;8.658;2024-01-30T09:01:50;7.70;;;7.10;;
8636;SDS011;4356;49.068;8.658;2024-01-30T09:04:18;11.43;;;7.93;;
8636;SDS011;4356;49.068;8.658;2024-01-30T09:06:43;8.53;;;7.73;;
8636;SDS011;4356;49.068;8.658;2024-01-30T09:09:09;9.07;;;8.13;;
8636;SDS011;4356;49.068;8.658;2024-01-30T09:11:34;10.77;;;8.17;;
8636;SDS011;4356;49.068;8.658;2024-01-30T09:14:00;10.80;;;8.27;;
8636;SDS011;4356;49.068;8.658;2024-01-30T09:16:26;7.80;;;7.20;;
8636;SDS011;4356;49.068;8.658;2024-01-30T09:18:51;10.80;;;7.63;;
8636;SDS011;4356;49.068;8.658;2024-01-30T09:21:16;9.60;;;7.07;;
8636;SDS011;4356;49.068;8.658;2024-01-30T09:23:42;10.60;;;7.63;;
8636;SDS011;4356;49.068;8.658;2024-01-30T09:26:07;9.13;;;7.80;;
8636;SDS011;4356;49.068;8.658;2024-01-30T09:28:33;8.67;;;7.73;;
8636;SDS011;4356;49.068;8.658;2024-01-30T09:30:58;11.27;;;7.87;;
8636;SDS011;4356;49.068;8.658;2024-01-30T09:33:23;7.53;;;6.60;;
8636;SDS011;4356;49.068;8.658;2024-01-30T09:35:49;6.73;;;4.90;;
8636;SDS011;4356;49.068;8.658;2024-01-30T09:38:14;6.17;;;5.57;;
8636;SDS011;4356;49.068;8.658;2024-01-30T09:40:39;9.67;;;6.00;;
8636;SDS011;4356;49.068;8.658;2024-01-30T09:43:06;7.63;;;6.90;;
8636;SDS011;4356;49.068;8.658;2024-01-30T09:45:32;7.63;;;7.03;;
8636;SDS011;4356;49.068;8.658;2024-01-30T09:47:59;11.27;;;8.20;;
8636;SDS011;4356;49.068;8.658;2024-01-30T09:50:24;7.50;;;6.70;;
8636;SDS011;4356;49.068;8.658;2024-01-30T09:52:50;9.17;;;7.73;;
8636;SDS011;4356;49.068;8.658;2024-01-30T09:55:16;8.27;;;7.57;;
8636;SDS011;4356;49.068;8.658;2024-01-30T09:57:42;9.20;;;8.30;;
8636;SDS011;4356;49.068;8.658;2024-01-30T10:00:08;8.97;;;8.17;;
8636;SDS011;4356;49.068;8.658;2024-01-30T10:02:34;9.47;;;8.30;;
8636;SDS011;4356;49.068;8.658;2024-01-30T10:04:59;9.97;;;8.53;;
8636;SDS011;4356;49.068;8.658;2024-01-30T10:07:25;9.60;;;7.80;;
8636;SDS011;4356;49.068;8.658;2024-01-30T10:09:52;8.80;;;7.90;;
8636;SDS011;4356;49.068;8.658;2024-01-30T10:12:18;10.10;;;7.90;;
8636;SDS011;4356;49.068;8.658;2024-01-30T10:14:43;11.47;;;9.20;;
8636;SDS011;4356;49.068;8.658;2024-01-30T10:17:09;10.70;;;9.13;;
8636;SDS011;4356;49.068;8.658;2024-01-30T10:19:36;8.83;;;8.03;;
8636;SDS011;4356;49.068;8.658;2024-01-30T10:22:01;11.67;;;8.67;;
8636;SDS011;4356;49.068;8.658;2024-01-30T10:24:27;10.17;;;7.97;;
8636;SDS011;4356;49.068;8.658;2024-01-30T10:26:54;10.17;;;9.07;;
8636;SDS011;4356;49.068;8.658;2024-01-30T10:29:20;9.63;;;8.63;;
8636;SDS011;4356;49.068;8.658;2024-01-30T10:31:45;10.83;;;8.13;;
8636;SDS011;4356;49.068;8.658;2024-01-30T10:34:12;11.13;;;8.47;;
8636;SDS011;4356;49.068;8.658;2024-01-30T10:36:41;11.73;;;8.60;;
8636;SDS011;4356;49.068;8.658;2024-01-30T10:39:11;10.37;;;8.77;;
8636;SDS011;4356;49.068;8.658;2024-01-30T10:41:45;10.77;;;9.37;;
8636;SDS011;4356;49.068;8.658;2024-01-30T10:44:13;9.70;;;8.70;;
8636;SDS011;4356;49.068;8.658;2024-01-30T10:46:45;13.70;;;9.47;;
8636;SDS011;4356;49.068;8.658;2024-01-30T10:49:16;10.13;;;9.13;;
8636;SDS011;4356;49.068;8.658;2024-01-30T10:51:41;10.57;;;8.97;;
8636;SDS011;4356;49.068;8.658;2024-01-30T10:54:07;10.63;;;9.03;;
8636;SDS011;4356;49.068;8.658;2024-01-30T10:56:34;11.47;;;9.87;;
8636;SDS011;4356;49.068;8.658;2024-01-30T10:59:00;11.17;;;9.40;;
8636;SDS011;4356;49.068;8.658;2024-01-30T11:01:26;9.50;;;8.60;;
8636;SDS011;4356;49.068;8.658;2024-01-30T11:03:53;10.97;;;8.40;;
8636;SDS011;4356;49.068;8.658;2024-01-30T11:06:25;10.17;;;9.03;;
8636;SDS011;4356;49.068;8.658;2024-01-30T11:09:04;9.97;;;8.93;;
8636;SDS011;4356;49.068;8.658;2024-01-30T11:14:26;8.80;;;7.93;;
8636;SDS011;4356;49.068;8.658;2024-01-30T11:16:56;8.93;;;8.13;;
8636;SDS011;4356;49.068;8.658;2024-01-30T11:19:23;8.63;;;7.83;;
8636;SDS011;4356;49.068;8.658;2024-01-30T11:21:52;8.47;;;7.67;;
8636;SDS011;4356;49.068;8.658;2024-01-30T11:24:19;10.23;;;7.90;;
8636;SDS011;4356;49.068;8.658;2024-01-30T11:26:47;8.67;;;7.83;;
8636;SDS011;4356;49.068;8.658;2024-01-30T11:29:29;7.90;;;7.23;;
8636;SDS011;4356;49.068;8.658;2024-01-30T11:31:55;7.67;;;6.97;;
8636;SDS011;4356;49.068;8.658;2024-01-30T11:34:22;8.77;;;7.07;;
8636;SDS011;4356;49.068;8.658;2024-01-30T11:36:51;6.63;;;6.03;;
8636;SDS011;4356;49.068;8.658;2024-01-30T11:39:23;6.57;;;5.80;;
8636;SDS011;4356;49.068;8.658;2024-01-30T11:41:50;7.40;;;6.30;;
8636;SDS011;4356;49.068;8.658;2024-01-30T11:44:17;7.00;;;5.90;;
8636;SDS011;4356;49.068;8.658;2024-01-30T11:46:42;7.87;;;6.37;;
8636;SDS011;4356;49.068;8.658;2024-01-30T11:49:08;8.03;;;7.40;;
8636;SDS011;4356;49.068;8.658;2024-01-30T11:51:33;6.87;;;6.30;;
8636;SDS011;4356;49.068;8.658;2024-01-30T11:53:59;11.90;;;6.70;;
8636;SDS011;4356;49.068;8.658;2024-01-30T11:56:24;7.47;;;6.80;;
8636;SDS011;4356;49.068;8.658;2024-01-30T11:58:51;7.60;;;6.53;;
8636;SDS011;4356;49.068;8.658;2024-01-30T12:01:17;8.40;;;7.27;;
8636;SDS011;4356;49.068;8.658;2024-01-30T12:03:43;7.40;;;6.70;;
8636;SDS011;4356;49.068;8.658;2024-01-30T12:06:15;7.63;;;6.90;;
8636;SDS011;4356;49.068;8.658;2024-01-30T12:08:40;8.27;;;6.97;;
8636;SDS011;4356;49.068;8.658;2024-01-30T12:11:06;10.20;;;7.20;;
8636;SDS011;4356;49.068;8.658;2024-01-30T12:13:32;7.53;;;6.83;;
8636;SDS011;4356;49.068;8.658;2024-01-30T12:15:57;10.43;;;6.83;;
8636;SDS011;4356;49.068;8.658;2024-01-30T12:18:23;8.33;;;7.33;;
8636;SDS011;4356;49.068;8.658;2024-01-30T12:21:00;7.57;;;6.80;;
8636;SDS011;4356;49.068;8.658;2024-01-30T12:23:29;9.03;;;7.30;;
8636;SDS011;4356;49.068;8.658;2024-01-30T12:25:55;8.43;;;7.07;;
8636;SDS011;4356;49.068;8.658;2024-01-30T12:28:21;12.53;;;7.03;;
8636;SDS011;4356;49.068;8.658;2024-01-30T12:30:46;8.13;;;7.03;;
8636;SDS011;4356;49.068;8.658;2024-01-30T12:33:18;7.20;;;6.70;;
8636;SDS011;4356;49.068;8.658;2024-01-30T12:35:47;7.57;;;7.07;;
8636;SDS011;4356;49.068;8.658;2024-01-30T12:38:13;7.90;;;7.20;;
8636;SDS011;4356;49.068;8.658;2024-01-30T12:40:39;7.30;;;6.60;;
8636;SDS011;4356;49.068;8.658;2024-01-30T12:43:04;6.20;;;5.60;;
8636;SDS011;4356;49.068;8.658;2024-01-30T12:45:30;7.13;;;6.53;;
8636;SDS011;4356;49.068;8.658;2024-01-30T12:47:55;10.13;;;6.23;;
8636;SDS011;4356;49.068;8.658;2024-01-30T12:50:21;6.13;;;5.53;;
8636;SDS011;4356;49.068;8.658;2024-01-30T12:52:47;8.70;;;5.83;;
8636;SDS011;4356;49.068;8.658;2024-01-30T12:55:13;5.87;;;5.37;;
8636;SDS011;4356;49.068;8.658;2024-01-30T12:57:38;6.20;;;5.23;;
8636;SDS011;4356;49.068;8.658;2024-01-30T13:00:04;6.60;;;6.10;;
8636;SDS011;4356;49.068;8.658;2024-01-30T13:02:33;5.77;;;5.27;;
8636;SDS011;4356;49.068;8.658;2024-01-30T13:05:02;6.43;;;5.80;;
8636;SDS011;4356;49.068;8.658;2024-01-30T13:07:31;5.83;;;5.43;;
8636;SDS011;4356;49.068;8.658;2024-01-30T13:09:56;8.13;;;5.30;;
8636;SDS011;4356;49.068;8.658;2024-01-30T13:12:27;7.90;;;5.57;;
8636;SDS011;4356;49.068;8.658;2024-01-30T13:14:53;7.63;;;5.93;;
8636;SDS011;4356;49.068;8.658;2024-01-30T13:17:19;6.20;;;5.43;;
8636;SDS011;4356;49.068;8.658;2024-01-30T13:19:44;12.30;;;5.93;;
8636;SDS011;4356;49.068;8.658;2024-01-30T13:22:09;5.90;;;5.40;;
8636;SDS011;4356;49.068;8.658;2024-01-30T13:24:35;6.43;;;5.87;;
8636;SDS011;4356;49.068;8.658;2024-01-30T13:27:00;7.90;;;4.97;;
8636;SDS011;4356;49.068;8.658;2024-01-30T13:29:26;6.30;;;5.70;;
8636;SDS011;4356;49.068;8.658;2024-01-30T13:31:51;5.00;;;4.60;;
8636;SDS011;4356;49.068;8.658;2024-01-30T13:34:16;5.70;;;5.20;;
8636;SDS011;4356;49.068;8.658;2024-01-30T13:36:42;5.60;;;5.00;;
8636;SDS011;4356;49.068;8.658;2024-01-30T13:39:08;4.83;;;4.53;;
8636;SDS011;4356;49.068;8.658;2024-01-30T13:41:36;5.50;;;5.00;;
8636;SDS011;4356;49.068;8.658;2024-01-30T13:44:02;6.97;;;5.40;;
8636;SDS011;4356;49.068;8.658;2024-01-30T13:46:28;8.33;;;5.43;;
8636;SDS011;4356;49.068;8.658;2024-01-30T13:48:54;6.60;;;5.03;;
8636;SDS011;4356;49.068;8.658;2024-01-30T13:51:20;5.90;;;5.30;;
8636;SDS011;4356;49.068;8.658;2024-01-30T13:53:45;5.20;;;4.80;;
8636;SDS011;4356;49.068;8.658;2024-01-30T13:56:11;5.73;;;5.23;;
8636;SDS011;4356;49.068;8.658;2024-01-30T13:58:36;5.53;;;5.13;;
8636;SDS011;4356;49.068;8.658;2024-01-30T14:01:02;7.50;;;5.63;;
8636;SDS011;4356;49.068;8.658;2024-01-30T14:03:27;5.77;;;5.27;;
8636;SDS011;4356;49.068;8.658;2024-01-30T14:05:55;7.57;;;5.30;;
8636;SDS011;4356;49.068;8.658;2024-01-30T14:08:21;5.43;;;4.97;;
8636;SDS011;4356;49.068;8.658;2024-01-30T14:10:48;5.67;;;5.17;;
8636;SDS011;4356;49.068;8.658;2024-01-30T14:13:14;6.47;;;5.63;;
8636;SDS011;4356;49.068;8.658;2024-01-30T14:15:39;6.30;;;5.70;;
8636;SDS011;4356;49.068;8.658;2024-01-30T14:18:08;5.33;;;4.90;;
8636;SDS011;4356;49.068;8.658;2024-01-30T14:20:34;5.90;;;5.40;;
8636;SDS011;4356;49.068;8.658;2024-01-30T14:22:59;5.90;;;5.23;;
8636;SDS011;4356;49.068;8.658;2024-01-30T14:25:25;5.57;;;5.07;;
8636;SDS011;4356;49.068;8.658;2024-01-30T14:27:51;5.70;;;5.00;;
8636;SDS011;4356;49.068;8.658;2024-01-30T14:30:16;5.20;;;4.80;;
8636;SDS011;4356;49.068;8.658;2024-01-30T14:32:45;5.70;;;5.20;;
8636;SDS011;4356;49.068;8.658;2024-01-30T14:35:11;5.37;;;4.97;;
8636;SDS011;4356;49.068;8.658;2024-01-30T14:37:37;5.90;;;5.37;;
8636;SDS011;4356;49.068;8.658;2024-01-30T14:40:03;6.23;;;5.60;;
8636;SDS011;4356;49.068;8.658;2024-01-30T14:42:32;5.50;;;5.00;;
8636;SDS011;4356;49.068;8.658;2024-01-30T14:44:57;5.90;;;5.33;;
8636;SDS011;4356;49.068;8.658;2024-01-30T14:47:23;5.60;;;5.20;;
8636;SDS011;4356;49.068;8.658;2024-01-30T14:49:49;6.73;;;5.80;;
8636;SDS011;4356;49.068;8.658;2024-01-30T14:52:14;6.60;;;5.27;;
8636;SDS011;4356;49.068;8.658;2024-01-30T14:54:40;5.70;;;5.20;;
8636;SDS011;4356;49.068;8.658;2024-01-30T14:57:05;7.83;;;5.30;;
8636;SDS011;4356;49.068;8.658;2024-01-30T14:59:31;6.00;;;5.50;;
8636;SDS011;4356;49.068;8.658;2024-01-30T15:01:56;5.87;;;5.27;;
8636;SDS011;4356;49.068;8.658;2024-01-30T15:04:22;5.47;;;5.07;;
8636;SDS011;4356;49.068;8.658;2024-01-30T15:06:47;5.70;;;5.30;;
8636;SDS011;4356;49.068;8.658;2024-01-30T15:09:14;5.87;;;5.30;;